sensor_id;sensor_type;location;lat;lon;timestamp;P1;durP1;ratioP1;P2;durP2;ratioP2
44222;SDS011;29895;48.804;9.386;2024-03-08T00:01:59;50.80;;;25.13;;
44222;SDS011;29895;48.804;9.386;2024-03-08T00:04:25;59.83;;;25.52;;
44222;SDS011;29895;48.804;9.386;2024-03-08T00:06:51;56.90;;;26.30;;
44222;SDS011;29895;48.804;9.386;2024-03-08T00:09:16;53.10;;;24.35;;
44222;SDS011;29895;48.804;9.386;2024-03-08T00:11:42;57.10;;;25.58;;
44222;SDS011;29895;48.804;9.386;2024-03-08T00:14:07;54.15;;;25.73;;
44222;SDS011;29895;48.804;9.386;2024-03-08T00:16:33;57.88;;;25.20;;
44222;SDS011;29895;48.804;9.386;2024-03-08T00:19:00;52.05;;;24.38;;
44222;SDS011;29895;48.804;9.386;2024-03-08T00:21:26;53.67;;;25.42;;
44222;SDS011;29895;48.804;9.386;2024-03-08T00:23:52;52.45;;;24.55;;
44222;SDS011;29895;48.804;9.386;2024-03-08T00:26:21;54.70;;;26.60;;
44222;SDS011;29895;48.804;9.386;2024-03-08T00:28:49;52.20;;;23.88;;
44222;SDS011;29895;48.804;9.386;2024-03-08T00:31:15;54.90;;;25.50;;
44222;SDS011;29895;48.804;9.386;2024-03-08T00:33:43;53.97;;;23.83;;
44222;SDS011;29895;48.804;9.386;2024-03-08T00:36:09;52.05;;;24.45;;
44222;SDS011;29895;48.804;9.386;2024-03-08T00:38:34;61.75;;;25.13;;
44222;SDS011;29895;48.804;9.386;2024-03-08T00:41:00;51.25;;;24.70;;
44222;SDS011;29895;48.804;9.386;2024-03-08T00:43:27;52.85;;;25.48;;
44222;SDS011;29895;48.804;9.386;2024-03-08T00:45:52;46.42;;;23.23;;
44222;SDS011;29895;48.804;9.386;2024-03-08T00:48:18;52.08;;;23.52;;
44222;SDS011;29895;48.804;9.386;2024-03-08T00:50:43;54.63;;;25.25;;
44222;SDS011;29895;48.804;9.386;2024-03-08T00:53:12;53.25;;;26.05;;
44222;SDS011;29895;48.804;9.386;2024-03-08T00:55:38;53.20;;;24.25;;
44222;SDS011;29895;48.804;9.386;2024-03-08T00:58:04;51.38;;;23.63;;
44222;SDS011;29895;48.804;9.386;2024-03-08T01:00:30;56.38;;;25.52;;
44222;SDS011;29895;48.804;9.386;2024-03-08T01:02:55;52.42;;;24.80;;
44222;SDS011;29895;48.804;9.386;2024-03-08T01:05:21;49.03;;;24.23;;
44222;SDS011;29895;48.804;9.386;2024-03-08T01:07:49;48.42;;;21.70;;
44222;SDS011;29895;48.804;9.386;2024-03-08T01:10:15;52.80;;;24.23;;
44222;SDS011;29895;48.804;9.386;2024-03-08T01:12:41;50.47;;;23.27;;
44222;SDS011;29895;48.804;9.386;2024-03-08T01:15:08;46.75;;;22.58;;
44222;SDS011;29895;48.804;9.386;2024-03-08T01:17:35;47.80;;;22.45;;
44222;SDS011;29895;48.804;9.386;2024-03-08T01:20:01;51.72;;;24.23;;
44222;SDS011;29895;48.804;9.386;2024-03-08T01:22:28;49.08;;;22.50;;
44222;SDS011;29895;48.804;9.386;2024-03-08T01:24:55;50.97;;;22.60;;
44222;SDS011;29895;48.804;9.386;2024-03-08T01:27:21;50.08;;;22.70;;
44222;SDS011;29895;48.804;9.386;2024-03-08T01:29:46;48.45;;;23.40;;
44222;SDS011;29895;48.804;9.386;2024-03-08T01:32:12;52.67;;;25.08;;
44222;SDS011;29895;48.804;9.386;2024-03-08T01:34:38;50.70;;;23.52;;
44222;SDS011;29895;48.804;9.386;2024-03-08T01:37:04;49.28;;;22.73;;
44222;SDS011;29895;48.804;9.386;2024-03-08T01:39:30;47.03;;;23.90;;
44222;SDS011;29895;48.804;9.386;2024-03-08T01:41:57;51.83;;;23.30;;
44222;SDS011;29895;48.804;9.386;2024-03-08T01:44:23;47.88;;;22.30;;
44222;SDS011;29895;48.804;9.386;2024-03-08T01:46:49;48.25;;;23.50;;
44222;SDS011;29895;48.804;9.386;2024-03-08T01:49:17;49.30;;;23.45;;
44222;SDS011;29895;48.804;9.386;2024-03-08T01:51:45;51.58;;;23.58;;
44222;SDS011;29895;48.804;9.386;2024-03-08T01:54:11;50.28;;;23.75;;
44222;SDS011;29895;48.804;9.386;2024-03-08T01:56:39;47.53;;;23.30;;
44222;SDS011;29895;48.804;9.386;2024-03-08T01:59:05;47.75;;;22.08;;
44222;SDS011;29895;48.804;9.386;2024-03-08T02:01:32;44.97;;;22.45;;
44222;SDS011;29895;48.804;9.386;2024-03-08T02:03:58;49.78;;;23.17;;
44222;SDS011;29895;48.804;9.386;2024-03-08T02:06:24;50.22;;;22.65;;
44222;SDS011;29895;48.804;9.386;2024-03-08T02:08:50;48.25;;;24.00;;
44222;SDS011;29895;48.804;9.386;2024-03-08T02:11:16;50.88;;;22.38;;
44222;SDS011;29895;48.804;9.386;2024-03-08T02:13:42;48.75;;;21.73;;
44222;SDS011;29895;48.804;9.386;2024-03-08T02:16:08;47.85;;;22.75;;
44222;SDS011;29895;48.804;9.386;2024-03-08T02:18:34;53.22;;;23.35;;
44222;SDS011;29895;48.804;9.386;2024-03-08T02:21:00;51.92;;;23.13;;
44222;SDS011;29895;48.804;9.386;2024-03-08T02:23:29;44.72;;;21.20;;
44222;SDS011;29895;48.804;9.386;2024-03-08T02:25:55;48.42;;;23.13;;
44222;SDS011;29895;48.804;9.386;2024-03-08T02:28:21;50.85;;;24.02;;
44222;SDS011;29895;48.804;9.386;2024-03-08T02:30:51;47.75;;;22.13;;
44222;SDS011;29895;48.804;9.386;2024-03-08T02:33:20;48.78;;;22.02;;
44222;SDS011;29895;48.804;9.386;2024-03-08T02:35:46;48.10;;;21.88;;
44222;SDS011;29895;48.804;9.386;2024-03-08T02:38:13;48.20;;;20.70;;
44222;SDS011;29895;48.804;9.386;2024-03-08T02:40:50;48.00;;;21.40;;
44222;SDS011;29895;48.804;9.386;2024-03-08T02:43:16;52.03;;;22.45;;
44222;SDS011;29895;48.804;9.386;2024-03-08T02:45:43;50.20;;;22.55;;
44222;SDS011;29895;48.804;9.386;2024-03-08T02:48:09;53.53;;;23.88;;
44222;SDS011;29895;48.804;9.386;2024-03-08T02:50:36;53.67;;;23.52;;
44222;SDS011;29895;48.804;9.386;2024-03-08T02:53:01;45.72;;;22.02;;
44222;SDS011;29895;48.804;9.386;2024-03-08T02:55:27;44.95;;;21.48;;
44222;SDS011;29895;48.804;9.386;2024-03-08T02:57:53;47.75;;;22.73;;
44222;SDS011;29895;48.804;9.386;2024-03-08T03:00:22;47.22;;;21.52;;
44222;SDS011;29895;48.804;9.386;2024-03-08T03:02:48;45.38;;;20.35;;
44222;SDS011;29895;48.804;9.386;2024-03-08T03:05:20;52.03;;;22.90;;
44222;SDS011;29895;48.804;9.386;2024-03-08T03:07:46;43.83;;;20.98;;
44222;SDS011;29895;48.804;9.386;2024-03-08T03:10:13;47.65;;;21.80;;
44222;SDS011;29895;48.804;9.386;2024-03-08T03:12:42;48.25;;;21.83;;
44222;SDS011;29895;48.804;9.386;2024-03-08T03:15:08;45.60;;;21.00;;
44222;SDS011;29895;48.804;9.386;2024-03-08T03:17:33;40.83;;;19.67;;
44222;SDS011;29895;48.804;9.386;2024-03-08T03:19:59;42.70;;;21.00;;
44222;SDS011;29895;48.804;9.386;2024-03-08T03:22:34;43.47;;;20.60;;
44222;SDS011;29895;48.804;9.386;2024-03-08T03:24:59;47.25;;;21.48;;
44222;SDS011;29895;48.804;9.386;2024-03-08T03:27:27;41.53;;;20.65;;
44222;SDS011;29895;48.804;9.386;2024-03-08T03:29:55;47.30;;;20.67;;
44222;SDS011;29895;48.804;9.386;2024-03-08T03:32:22;43.33;;;19.95;;
44222;SDS011;29895;48.804;9.386;2024-03-08T03:34:48;42.55;;;19.83;;
44222;SDS011;29895;48.804;9.386;2024-03-08T03:37:18;43.70;;;20.33;;
44222;SDS011;29895;48.804;9.386;2024-03-08T03:39:44;41.55;;;19.50;;
44222;SDS011;29895;48.804;9.386;2024-03-08T03:42:16;45.05;;;20.98;;
44222;SDS011;29895;48.804;9.386;2024-03-08T03:44:46;39.40;;;19.30;;
44222;SDS011;29895;48.804;9.386;2024-03-08T03:47:12;43.85;;;20.92;;
44222;SDS011;29895;48.804;9.386;2024-03-08T03:49:39;46.45;;;20.10;;
44222;SDS011;29895;48.804;9.386;2024-03-08T03:52:08;47.53;;;21.38;;
44222;SDS011;29895;48.804;9.386;2024-03-08T03:54:35;43.75;;;21.05;;
44222;SDS011;29895;48.804;9.386;2024-03-08T03:57:01;45.40;;;20.42;;
44222;SDS011;29895;48.804;9.386;2024-03-08T03:59:27;50.65;;;21.02;;
44222;SDS011;29895;48.804;9.386;2024-03-08T04:01:53;43.33;;;19.38;;
44222;SDS011;29895;48.804;9.386;2024-03-08T04:04:19;49.97;;;21.77;;
44222;SDS011;29895;48.804;9.386;2024-03-08T04:06:49;46.63;;;22.17;;
44222;SDS011;29895;48.804;9.386;2024-03-08T04:09:16;45.53;;;20.90;;
44222;SDS011;29895;48.804;9.386;2024-03-08T04:11:44;48.78;;;21.30;;
44222;SDS011;29895;48.804;9.386;2024-03-08T04:14:09;42.90;;;19.98;;
44222;SDS011;29895;48.804;9.386;2024-03-08T04:16:35;45.67;;;21.13;;
44222;SDS011;29895;48.804;9.386;2024-03-08T04:19:02;46.45;;;21.52;;
44222;SDS011;29895;48.804;9.386;2024-03-08T04:21:32;45.63;;;21.00;;
44222;SDS011;29895;48.804;9.386;2024-03-08T04:23:57;49.15;;;22.70;;
44222;SDS011;29895;48.804;9.386;2024-03-08T04:26:23;46.63;;;21.88;;
44222;SDS011;29895;48.804;9.386;2024-03-08T04:28:49;45.72;;;21.98;;
44222;SDS011;29895;48.804;9.386;2024-03-08T04:31:14;45.15;;;21.33;;
44222;SDS011;29895;48.804;9.386;2024-03-08T04:33:40;45.50;;;22.17;;
44222;SDS011;29895;48.804;9.386;2024-03-08T04:36:06;41.42;;;20.50;;
44222;SDS011;29895;48.804;9.386;2024-03-08T04:38:32;47.47;;;22.00;;
44222;SDS011;29895;48.804;9.386;2024-03-08T04:40:58;50.13;;;23.13;;
44222;SDS011;29895;48.804;9.386;2024-03-08T04:43:27;49.08;;;23.10;;
44222;SDS011;29895;48.804;9.386;2024-03-08T04:45:55;46.45;;;22.73;;
44222;SDS011;29895;48.804;9.386;2024-03-08T04:48:21;48.75;;;23.60;;
44222;SDS011;29895;48.804;9.386;2024-03-08T04:50:46;50.88;;;23.13;;
44222;SDS011;29895;48.804;9.386;2024-03-08T04:53:12;49.38;;;22.40;;
44222;SDS011;29895;48.804;9.386;2024-03-08T04:55:37;47.35;;;21.85;;
44222;SDS011;29895;48.804;9.386;2024-03-08T04:58:04;48.20;;;22.88;;
44222;SDS011;29895;48.804;9.386;2024-03-08T05:00:31;48.42;;;23.80;;
44222;SDS011;29895;48.804;9.386;2024-03-08T05:02:57;48.13;;;21.92;;
44222;SDS011;29895;48.804;9.386;2024-03-08T05:05:23;52.90;;;24.45;;
44222;SDS011;29895;48.804;9.386;2024-03-08T05:07:50;47.53;;;22.38;;
44222;SDS011;29895;48.804;9.386;2024-03-08T05:10:15;49.22;;;23.88;;
44222;SDS011;29895;48.804;9.386;2024-03-08T05:12:42;51.00;;;23.45;;
44222;SDS011;29895;48.804;9.386;2024-03-08T05:15:09;43.47;;;22.05;;
44222;SDS011;29895;48.804;9.386;2024-03-08T05:17:34;52.15;;;23.73;;
44222;SDS011;29895;48.804;9.386;2024-03-08T05:20:00;44.35;;;22.13;;
44222;SDS011;29895;48.804;9.386;2024-03-08T05:22:26;44.63;;;22.75;;
44222;SDS011;29895;48.804;9.386;2024-03-08T05:24:52;48.92;;;23.83;;
44222;SDS011;29895;48.804;9.386;2024-03-08T05:27:18;47.50;;;24.08;;
44222;SDS011;29895;48.804;9.386;2024-03-08T05:29:44;48.75;;;23.00;;
44222;SDS011;29895;48.804;9.386;2024-03-08T05:32:11;47.33;;;22.30;;
44222;SDS011;29895;48.804;9.386;2024-03-08T05:34:37;50.45;;;23.60;;
44222;SDS011;29895;48.804;9.386;2024-03-08T05:37:03;50.60;;;23.73;;
44222;SDS011;29895;48.804;9.386;2024-03-08T05:39:29;46.67;;;23.52;;
44222;SDS011;29895;48.804;9.386;2024-03-08T05:41:55;47.40;;;24.35;;
44222;SDS011;29895;48.804;9.386;2024-03-08T05:44:21;46.55;;;24.20;;
44222;SDS011;29895;48.804;9.386;2024-03-08T05:46:47;48.10;;;22.83;;
44222;SDS011;29895;48.804;9.386;2024-03-08T05:49:12;47.83;;;23.17;;
44222;SDS011;29895;48.804;9.386;2024-03-08T05:51:39;48.25;;;22.67;;
44222;SDS011;29895;48.804;9.386;2024-03-08T05:54:06;51.63;;;24.00;;
44222;SDS011;29895;48.804;9.386;2024-03-08T05:56:35;50.13;;;24.20;;
44222;SDS011;29895;48.804;9.386;2024-03-08T05:59:01;51.17;;;24.63;;
44222;SDS011;29895;48.804;9.386;2024-03-08T06:01:27;52.45;;;24.10;;
44222;SDS011;29895;48.804;9.386;2024-03-08T06:03:53;54.30;;;25.95;;
44222;SDS011;29895;48.804;9.386;2024-03-08T06:06:21;46.95;;;23.98;;
44222;SDS011;29895;48.804;9.386;2024-03-08T06:08:47;52.00;;;24.70;;
44222;SDS011;29895;48.804;9.386;2024-03-08T06:11:17;50.45;;;24.05;;
44222;SDS011;29895;48.804;9.386;2024-03-08T06:13:46;53.30;;;23.35;;
44222;SDS011;29895;48.804;9.386;2024-03-08T06:16:12;47.67;;;24.05;;
44222;SDS011;29895;48.804;9.386;2024-03-08T06:18:38;48.10;;;23.50;;
44222;SDS011;29895;48.804;9.386;2024-03-08T06:21:06;49.40;;;23.52;;
44222;SDS011;29895;48.804;9.386;2024-03-08T06:23:34;47.63;;;23.00;;
44222;SDS011;29895;48.804;9.386;2024-03-08T06:26:06;45.22;;;23.60;;
44222;SDS011;29895;48.804;9.386;2024-03-08T06:28:32;51.03;;;23.65;;
44222;SDS011;29895;48.804;9.386;2024-03-08T06:30:58;48.58;;;23.48;;
44222;SDS011;29895;48.804;9.386;2024-03-08T06:33:25;45.90;;;22.95;;
44222;SDS011;29895;48.804;9.386;2024-03-08T06:35:53;46.20;;;23.10;;
44222;SDS011;29895;48.804;9.386;2024-03-08T06:38:22;45.13;;;22.92;;
44222;SDS011;29895;48.804;9.386;2024-03-08T06:40:48;46.85;;;23.05;;
44222;SDS011;29895;48.804;9.386;2024-03-08T06:43:14;46.33;;;21.73;;
44222;SDS011;29895;48.804;9.386;2024-03-08T06:45:43;48.78;;;22.75;;
44222;SDS011;29895;48.804;9.386;2024-03-08T06:48:18;48.28;;;23.40;;
44222;SDS011;29895;48.804;9.386;2024-03-08T06:50:47;44.15;;;22.48;;
44222;SDS011;29895;48.804;9.386;2024-03-08T06:53:13;47.05;;;23.13;;
44222;SDS011;29895;48.804;9.386;2024-03-08T06:55:39;43.88;;;21.77;;
44222;SDS011;29895;48.804;9.386;2024-03-08T06:58:05;47.83;;;23.17;;
44222;SDS011;29895;48.804;9.386;2024-03-08T07:00:32;44.50;;;23.27;;
44222;SDS011;29895;48.804;9.386;2024-03-08T07:02:58;47.58;;;23.52;;
44222;SDS011;29895;48.804;9.386;2024-03-08T07:05:27;45.15;;;22.55;;
44222;SDS011;29895;48.804;9.386;2024-03-08T07:07:54;47.28;;;23.42;;
44222;SDS011;29895;48.804;9.386;2024-03-08T07:10:22;45.67;;;23.67;;
44222;SDS011;29895;48.804;9.386;2024-03-08T07:12:49;48.30;;;23.48;;
44222;SDS011;29895;48.804;9.386;2024-03-08T07:15:16;45.10;;;23.25;;
44222;SDS011;29895;48.804;9.386;2024-03-08T07:17:44;47.90;;;24.08;;
44222;SDS011;29895;48.804;9.386;2024-03-08T07:20:15;48.75;;;23.17;;
44222;SDS011;29895;48.804;9.386;2024-03-08T07:22:47;45.05;;;23.33;;
44222;SDS011;29895;48.804;9.386;2024-03-08T07:25:13;43.22;;;22.58;;
44222;SDS011;29895;48.804;9.386;2024-03-08T07:27:54;40.47;;;20.85;;
44222;SDS011;29895;48.804;9.386;2024-03-08T07:30:21;44.53;;;22.90;;
44222;SDS011;29895;48.804;9.386;2024-03-08T07:33:09;49.30;;;23.02;;
44222;SDS011;29895;48.804;9.386;2024-03-08T07:35:38;45.42;;;22.55;;
44222;SDS011;29895;48.804;9.386;2024-03-08T07:40:40;45.03;;;23.23;;
44222;SDS011;29895;48.804;9.386;2024-03-08T07:43:09;46.05;;;22.38;;
44222;SDS011;29895;48.804;9.386;2024-03-08T07:45:36;44.17;;;22.70;;
44222;SDS011;29895;48.804;9.386;2024-03-08T07:48:03;46.63;;;22.70;;
44222;SDS011;29895;48.804;9.386;2024-03-08T07:50:29;46.75;;;22.42;;
44222;SDS011;29895;48.804;9.386;2024-03-08T07:52:54;43.83;;;22.38;;
44222;SDS011;29895;48.804;9.386;2024-03-08T07:55:20;46.30;;;21.98;;
44222;SDS011;29895;48.804;9.386;2024-03-08T07:57:49;44.33;;;22.00;;
44222;SDS011;29895;48.804;9.386;2024-03-08T08:00:15;44.42;;;22.27;;
44222;SDS011;29895;48.804;9.386;2024-03-08T08:02:46;48.08;;;22.58;;
44222;SDS011;29895;48.804;9.386;2024-03-08T08:05:13;48.22;;;23.50;;
44222;SDS011;29895;48.804;9.386;2024-03-08T08:07:39;44.35;;;21.13;;
44222;SDS011;29895;48.804;9.386;2024-03-08T08:10:08;44.25;;;22.23;;
44222;SDS011;29895;48.804;9.386;2024-03-08T08:12:40;45.10;;;22.38;;
44222;SDS011;29895;48.804;9.386;2024-03-08T08:15:07;51.40;;;23.33;;
44222;SDS011;29895;48.804;9.386;2024-03-08T08:17:33;42.88;;;22.08;;
44222;SDS011;29895;48.804;9.386;2024-03-08T08:19:59;47.85;;;22.30;;
44222;SDS011;29895;48.804;9.386;2024-03-08T08:22:25;43.10;;;21.65;;
44222;SDS011;29895;48.804;9.386;2024-03-08T08:24:51;43.70;;;21.48;;
44222;SDS011;29895;48.804;9.386;2024-03-08T08:27:17;43.90;;;21.55;;
44222;SDS011;29895;48.804;9.386;2024-03-08T08:29:43;46.10;;;21.85;;
44222;SDS011;29895;48.804;9.386;2024-03-08T08:32:11;43.45;;;22.17;;
44222;SDS011;29895;48.804;9.386;2024-03-08T08:34:36;40.95;;;20.73;;
44222;SDS011;29895;48.804;9.386;2024-03-08T08:37:02;46.53;;;22.02;;
44222;SDS011;29895;48.804;9.386;2024-03-08T08:39:28;42.78;;;20.75;;
44222;SDS011;29895;48.804;9.386;2024-03-08T08:41:53;42.75;;;20.45;;
44222;SDS011;29895;48.804;9.386;2024-03-08T08:44:19;42.55;;;20.45;;
44222;SDS011;29895;48.804;9.386;2024-03-08T08:46:45;43.55;;;21.25;;
44222;SDS011;29895;48.804;9.386;2024-03-08T08:49:10;45.88;;;21.27;;
44222;SDS011;29895;48.804;9.386;2024-03-08T08:51:39;40.83;;;19.52;;
44222;SDS011;29895;48.804;9.386;2024-03-08T08:54:05;43.15;;;21.33;;
44222;SDS011;29895;48.804;9.386;2024-03-08T08:56:34;47.25;;;20.73;;
44222;SDS011;29895;48.804;9.386;2024-03-08T08:59:00;43.97;;;20.83;;
44222;SDS011;29895;48.804;9.386;2024-03-08T09:01:25;39.22;;;19.85;;
44222;SDS011;29895;48.804;9.386;2024-03-08T09:03:52;45.20;;;21.80;;
44222;SDS011;29895;48.804;9.386;2024-03-08T09:06:19;46.25;;;21.23;;
44222;SDS011;29895;48.804;9.386;2024-03-08T09:08:45;44.83;;;21.85;;
44222;SDS011;29895;48.804;9.386;2024-03-08T09:11:10;42.42;;;20.42;;
44222;SDS011;29895;48.804;9.386;2024-03-08T09:13:36;43.78;;;21.15;;
44222;SDS011;29895;48.804;9.386;2024-03-08T09:16:02;45.85;;;22.00;;
44222;SDS011;29895;48.804;9.386;2024-03-08T09:18:30;46.65;;;20.98;;
44222;SDS011;29895;48.804;9.386;2024-03-08T09:20:57;44.17;;;21.10;;
44222;SDS011;29895;48.804;9.386;2024-03-08T09:23:23;40.60;;;20.17;;
44222;SDS011;29895;48.804;9.386;2024-03-08T09:25:50;42.47;;;20.73;;
44222;SDS011;29895;48.804;9.386;2024-03-08T09:28:16;43.03;;;21.90;;
44222;SDS011;29895;48.804;9.386;2024-03-08T09:30:42;43.70;;;20.67;;
44222;SDS011;29895;48.804;9.386;2024-03-08T09:33:09;44.97;;;20.65;;
44222;SDS011;29895;48.804;9.386;2024-03-08T09:35:36;43.47;;;21.48;;
44222;SDS011;29895;48.804;9.386;2024-03-08T09:38:02;43.25;;;22.45;;
44222;SDS011;29895;48.804;9.386;2024-03-08T09:40:30;46.88;;;20.73;;
44222;SDS011;29895;48.804;9.386;2024-03-08T09:42:55;44.15;;;20.58;;
44222;SDS011;29895;48.804;9.386;2024-03-08T09:45:22;43.22;;;21.73;;
44222;SDS011;29895;48.804;9.386;2024-03-08T09:47:49;41.10;;;20.73;;
44222;SDS011;29895;48.804;9.386;2024-03-08T09:50:17;46.15;;;21.65;;
44222;SDS011;29895;48.804;9.386;2024-03-08T09:52:43;41.08;;;21.25;;
44222;SDS011;29895;48.804;9.386;2024-03-08T09:55:12;48.92;;;21.83;;
44222;SDS011;29895;48.804;9.386;2024-03-08T09:57:39;47.08;;;22.08;;
44222;SDS011;29895;48.804;9.386;2024-03-08T10:00:05;48.65;;;22.38;;
44222;SDS011;29895;48.804;9.386;2024-03-08T10:02:49;47.92;;;22.88;;
44222;SDS011;29895;48.804;9.386;2024-03-08T10:05:17;41.63;;;20.48;;
44222;SDS011;29895;48.804;9.386;2024-03-08T10:07:43;42.17;;;22.10;;
44222;SDS011;29895;48.804;9.386;2024-03-08T10:10:09;50.53;;;23.55;;
44222;SDS011;29895;48.804;9.386;2024-03-08T10:12:37;40.00;;;19.77;;
44222;SDS011;29895;48.804;9.386;2024-03-08T10:15:05;42.45;;;21.27;;
44222;SDS011;29895;48.804;9.386;2024-03-08T10:17:33;43.33;;;20.58;;
44222;SDS011;29895;48.804;9.386;2024-03-08T10:20:00;43.58;;;21.60;;
44222;SDS011;29895;48.804;9.386;2024-03-08T10:22:26;44.25;;;22.55;;
44222;SDS011;29895;48.804;9.386;2024-03-08T10:24:52;49.97;;;22.38;;
44222;SDS011;29895;48.804;9.386;2024-03-08T10:27:17;45.90;;;21.83;;
44222;SDS011;29895;48.804;9.386;2024-03-08T10:29:46;41.20;;;20.60;;
44222;SDS011;29895;48.804;9.386;2024-03-08T10:32:13;45.47;;;21.50;;
44222;SDS011;29895;48.804;9.386;2024-03-08T10:34:38;41.05;;;19.98;;
44222;SDS011;29895;48.804;9.386;2024-03-08T10:37:06;39.63;;;20.23;;
44222;SDS011;29895;48.804;9.386;2024-03-08T10:39:36;37.72;;;19.02;;
44222;SDS011;29895;48.804;9.386;2024-03-08T10:42:03;43.55;;;20.70;;
44222;SDS011;29895;48.804;9.386;2024-03-08T10:49:54;39.63;;;20.15;;
44222;SDS011;29895;48.804;9.386;2024-03-08T10:52:28;39.67;;;21.25;;
44222;SDS011;29895;48.804;9.386;2024-03-08T10:54:54;41.92;;;20.20;;
44222;SDS011;29895;48.804;9.386;2024-03-08T10:57:22;39.10;;;19.58;;
44222;SDS011;29895;48.804;9.386;2024-03-08T10:59:49;43.10;;;22.42;;
44222;SDS011;29895;48.804;9.386;2024-03-08T11:02:16;37.20;;;19.42;;
44222;SDS011;29895;48.804;9.386;2024-03-08T11:04:47;38.95;;;20.42;;
44222;SDS011;29895;48.804;9.386;2024-03-08T11:07:14;39.40;;;20.60;;
44222;SDS011;29895;48.804;9.386;2024-03-08T11:09:45;40.78;;;19.60;;
44222;SDS011;29895;48.804;9.386;2024-03-08T11:12:25;39.92;;;21.23;;
44222;SDS011;29895;48.804;9.386;2024-03-08T11:17:21;36.40;;;20.38;;
44222;SDS011;29895;48.804;9.386;2024-03-08T11:19:48;44.60;;;20.95;;
44222;SDS011;29895;48.804;9.386;2024-03-08T11:22:21;38.85;;;22.08;;
44222;SDS011;29895;48.804;9.386;2024-03-08T11:24:48;39.78;;;20.98;;
44222;SDS011;29895;48.804;9.386;2024-03-08T11:27:14;40.85;;;21.45;;
44222;SDS011;29895;48.804;9.386;2024-03-08T11:29:40;40.22;;;22.13;;
44222;SDS011;29895;48.804;9.386;2024-03-08T11:32:15;37.53;;;19.92;;
44222;SDS011;29895;48.804;9.386;2024-03-08T11:34:47;42.95;;;21.50;;
44222;SDS011;29895;48.804;9.386;2024-03-08T11:37:18;43.33;;;22.65;;
44222;SDS011;29895;48.804;9.386;2024-03-08T11:39:49;42.92;;;21.17;;
44222;SDS011;29895;48.804;9.386;2024-03-08T11:42:17;42.23;;;19.83;;
44222;SDS011;29895;48.804;9.386;2024-03-08T11:44:46;48.28;;;20.77;;
44222;SDS011;29895;48.804;9.386;2024-03-08T11:47:13;42.47;;;20.95;;
44222;SDS011;29895;48.804;9.386;2024-03-08T11:49:39;45.55;;;22.48;;
44222;SDS011;29895;48.804;9.386;2024-03-08T11:52:12;45.05;;;22.00;;
44222;SDS011;29895;48.804;9.386;2024-03-08T11:54:43;43.83;;;20.35;;
44222;SDS011;29895;48.804;9.386;2024-03-08T11:57:22;41.83;;;20.80;;
44222;SDS011;29895;48.804;9.386;2024-03-08T11:59:52;41.45;;;21.23;;
44222;SDS011;29895;48.804;9.386;2024-03-08T12:02:18;43.83;;;22.17;;
44222;SDS011;29895;48.804;9.386;2024-03-08T12:04:50;39.75;;;20.55;;
44222;SDS011;29895;48.804;9.386;2024-03-08T12:07:25;42.55;;;21.48;;
44222;SDS011;29895;48.804;9.386;2024-03-08T12:12:48;41.17;;;20.70;;
44222;SDS011;29895;48.804;9.386;2024-03-08T12:15:16;42.30;;;21.77;;
44222;SDS011;29895;48.804;9.386;2024-03-08T12:17:43;43.00;;;21.08;;
44222;SDS011;29895;48.804;9.386;2024-03-08T12:20:14;39.58;;;20.63;;
44222;SDS011;29895;48.804;9.386;2024-03-08T12:22:42;40.03;;;21.27;;
44222;SDS011;29895;48.804;9.386;2024-03-08T12:25:10;42.90;;;22.17;;
44222;SDS011;29895;48.804;9.386;2024-03-08T12:27:37;40.10;;;21.42;;
44222;SDS011;29895;48.804;9.386;2024-03-08T12:30:20;43.08;;;21.63;;
44222;SDS011;29895;48.804;9.386;2024-03-08T12:32:54;40.17;;;21.45;;
44222;SDS011;29895;48.804;9.386;2024-03-08T12:35:21;44.42;;;21.30;;
44222;SDS011;29895;48.804;9.386;2024-03-08T12:37:58;41.22;;;20.83;;
44222;SDS011;29895;48.804;9.386;2024-03-08T12:40:26;46.80;;;20.73;;
44222;SDS011;29895;48.804;9.386;2024-03-08T12:42:56;41.28;;;21.52;;
44222;SDS011;29895;48.804;9.386;2024-03-08T12:45:26;44.22;;;22.55;;
44222;SDS011;29895;48.804;9.386;2024-03-08T12:47:52;41.05;;;21.23;;
44222;SDS011;29895;48.804;9.386;2024-03-08T12:50:19;44.90;;;20.63;;
44222;SDS011;29895;48.804;9.386;2024-03-08T12:52:46;41.17;;;20.83;;
44222;SDS011;29895;48.804;9.386;2024-03-08T12:55:11;38.55;;;20.73;;
44222;SDS011;29895;48.804;9.386;2024-03-08T12:57:37;41.67;;;20.92;;
44222;SDS011;29895;48.804;9.386;2024-03-08T13:00:04;41.88;;;21.08;;
44222;SDS011;29895;48.804;9.386;2024-03-08T13:02:30;42.08;;;20.70;;
44222;SDS011;29895;48.804;9.386;2024-03-08T13:04:57;40.72;;;20.92;;
44222;SDS011;29895;48.804;9.386;2024-03-08T13:07:24;42.10;;;21.13;;
44222;SDS011;29895;48.804;9.386;2024-03-08T13:09:53;41.20;;;19.52;;
44222;SDS011;29895;48.804;9.386;2024-03-08T13:12:20;38.75;;;19.73;;
44222;SDS011;29895;48.804;9.386;2024-03-08T13:14:46;42.63;;;20.55;;
44222;SDS011;29895;48.804;9.386;2024-03-08T13:17:15;38.53;;;19.92;;
44222;SDS011;29895;48.804;9.386;2024-03-08T13:19:41;38.78;;;20.45;;
44222;SDS011;29895;48.804;9.386;2024-03-08T13:22:07;41.88;;;19.27;;
44222;SDS011;29895;48.804;9.386;2024-03-08T13:24:38;41.35;;;20.15;;
44222;SDS011;29895;48.804;9.386;2024-03-08T13:27:07;36.28;;;19.63;;
44222;SDS011;29895;48.804;9.386;2024-03-08T13:29:44;44.40;;;21.05;;
44222;SDS011;29895;48.804;9.386;2024-03-08T13:32:14;38.75;;;21.00;;
44222;SDS011;29895;48.804;9.386;2024-03-08T13:34:41;34.92;;;19.25;;
44222;SDS011;29895;48.804;9.386;2024-03-08T13:37:07;41.17;;;20.55;;
44222;SDS011;29895;48.804;9.386;2024-03-08T13:39:34;39.30;;;20.95;;
44222;SDS011;29895;48.804;9.386;2024-03-08T13:42:08;39.72;;;19.67;;
44222;SDS011;29895;48.804;9.386;2024-03-08T13:44:45;34.40;;;19.10;;
44222;SDS011;29895;48.804;9.386;2024-03-08T13:47:11;38.30;;;19.55;;
44222;SDS011;29895;48.804;9.386;2024-03-08T13:49:38;37.08;;;19.58;;
44222;SDS011;29895;48.804;9.386;2024-03-08T13:52:04;41.78;;;19.00;;
44222;SDS011;29895;48.804;9.386;2024-03-08T13:54:30;36.80;;;20.17;;
44222;SDS011;29895;48.804;9.386;2024-03-08T13:56:57;39.20;;;19.98;;
44222;SDS011;29895;48.804;9.386;2024-03-08T13:59:23;35.13;;;18.70;;
44222;SDS011;29895;48.804;9.386;2024-03-08T14:01:49;41.55;;;20.73;;
44222;SDS011;29895;48.804;9.386;2024-03-08T14:04:15;40.05;;;20.52;;
44222;SDS011;29895;48.804;9.386;2024-03-08T14:06:43;37.95;;;20.40;;
44222;SDS011;29895;48.804;9.386;2024-03-08T14:09:10;38.22;;;20.58;;
44222;SDS011;29895;48.804;9.386;2024-03-08T14:11:42;35.80;;;19.02;;
44222;SDS011;29895;48.804;9.386;2024-03-08T14:14:09;39.50;;;20.30;;
44222;SDS011;29895;48.804;9.386;2024-03-08T14:16:37;40.28;;;20.20;;
44222;SDS011;29895;48.804;9.386;2024-03-08T14:19:06;40.60;;;20.02;;
44222;SDS011;29895;48.804;9.386;2024-03-08T14:21:32;41.40;;;20.02;;
44222;SDS011;29895;48.804;9.386;2024-03-08T14:23:58;38.95;;;21.60;;
44222;SDS011;29895;48.804;9.386;2024-03-08T14:26:23;41.90;;;21.30;;
44222;SDS011;29895;48.804;9.386;2024-03-08T14:28:49;38.63;;;19.85;;
44222;SDS011;29895;48.804;9.386;2024-03-08T14:31:20;36.58;;;19.52;;
44222;SDS011;29895;48.804;9.386;2024-03-08T14:33:48;37.42;;;19.58;;
44222;SDS011;29895;48.804;9.386;2024-03-08T14:36:14;39.70;;;20.05;;